Balch Springs, Texas
Current Conditions -  °F | °C
As of 10:47 AM on Thursday 30 Oct 2014 (Local Time) from KHQZ Reporting Station
Clear Clear  
Wind Chill: 66°   Ceiling: Unl
Heat Index: 66°   Visibility: 10mi
Dew Point: 46°   Wind: 7mph
Humidity: 49%   Direction: 160°SSE
Pressure: 30.19"   Gusts: NA
Location:  32.73°N, 96.62°W
Report Text: KHQZ 301547Z 16006KT 10SM CLR 19/08 A3019
Loading
Personal Weather Stations






























Interactive Weather Map
Tropical Storm Tracking
New forecast layout! Learn more

10-Day Weather Forecast

Advertisements
Track Severe Weather on mobile